Latest Weather Observations for Katanning RS

IDW60801

Issued at 12:34 pm WST Friday 21 July 2017 (issued every 30 minutes, with the page automatically refreshed every 10 minutes)

About weather observations | Map of weather stations | Latest weather observations for WA | Other Formats
Station Details ID: 010916 Name: KATANNING Lat: -33.69 Lon: 117.61 Height: 320.0 m
Data from the previous 72 hours. | See also: Recent months at Katanning RS
Date/Time
WST
Temp
°C
App
Temp
°C
Dew
Point
°C
Rel
Hum
%
Delta-T
°C
Wind Press
QNH
hPa
Press
MSL
hPa
Rain since
9am
mm
Dir  Spd
km/h
Gust
km/h
Spd
kts
Gust
kts
21/12:30pm 14.4 9.2 10.2 76 2.2 NW 28 41 15 22 1009.5 1009.6 0.6
21/12:00pm 13.2 8.9 10.7 85 1.3 WNW 24 32 13 17 1010.3 1010.4 0.6
21/11:30am 13.3 9.5 9.7 79 1.9 NW 20 30 11 16 1010.7 1010.8 0.4
21/11:00am 14.2 9.3 9.8 75 2.3 NW 26 39 14 21 1011.0 1011.2 0.0
21/10:37am 14.2 8.7 9.0 71 2.7 NW 28 48 15 26 1011.2 1011.4 0.0
21/10:30am 14.4 9.0 9.6 73 2.5 NW 28 41 15 22 1011.3 1011.5 0.0
21/10:00am 13.1 8.4 9.2 77 2.0 NW 24 37 13 20 1011.4 1011.6 0.0
21/09:30am 12.0 7.8 9.6 85 1.2 NNW 22 30 12 16 1011.6 1011.8 0.0
21/09:00am 10.4 6.4 8.3 87 1.0 NNW 19 26 10 14 1011.6 1011.8 1.8
21/08:30am 10.5 6.8 8.1 85 1.2 NNW 17 26 9 14 1011.5 1011.7 1.6
21/08:00am 9.9 6.2 7.8 87 1.0 NNW 17 20 9 11 1011.3 1011.5 1.6
21/07:30am 9.5 6.1 7.6 88 0.9 NNW 15 22 8 12 1011.3 1011.5 1.6
21/07:00am 9.5 5.8 7.8 89 0.8 NNW 17 20 9 11 1011.0 1011.2 1.6
21/06:30am 9.5 5.7 7.6 88 0.9 NNW 17 22 9 12 1010.8 1010.9 1.6
21/06:00am 9.5 6.1 7.6 88 0.9 NNW 15 20 8 11 1010.6 1010.7 1.2
21/05:30am 9.4 5.6 7.5 88 0.9 NNW 17 24 9 13 1010.5 1010.6 1.2
21/05:00am 9.1 6.0 7.1 87 1.0 NNW 13 19 7 10 1010.3 1010.4 1.2
21/04:30am 9.0 5.5 7.0 87 1.0 NNW 15 20 8 11 1010.2 1010.3 1.2
21/04:00am 9.3 5.4 6.9 85 1.1 NW 17 24 9 13 1010.2 1010.3 1.2
21/03:30am 8.8 5.1 6.3 84 1.2 NW 15 20 8 11 1010.4 1010.5 1.2
21/03:00am 8.3 4.9 5.8 84 1.2 NW 13 19 7 10 1010.5 1010.6 1.2
21/02:30am 8.2 5.1 5.7 84 1.2 NW 11 17 6 9 1010.7 1010.8 1.2
21/02:00am 8.8 5.4 6.1 83 1.3 NW 13 19 7 10 1010.7 1010.8 1.2
21/01:30am 9.2 5.9 6.6 84 1.2 NW 13 20 7 11 1011.0 1011.2 1.2
21/01:00am 8.9 5.9 6.2 83 1.3 NW 11 15 6 8 1011.0 1011.2 1.2
21/12:30am 9.8 6.5 6.2 78 1.7 WNW 13 24 7 13 1011.0 1011.2 1.2
21/12:00am 9.9 6.6 6.6 80 1.6 WNW 13 19 7 10 1011.1 1011.3 1.2
 
Date/Time
WST
Temp
°C
App
Temp
°C
Dew
Point
°C
Rel
Hum
%
Delta-T
°C
Wind Press
QNH
hPa
Press
MSL
hPa
Rain since
9am
mm
Dir  Spd
km/h
Gust
km/h
Spd
kts
Gust
kts
20/11:30pm 9.7 6.4 6.4 80 1.6 WNW 13 20 7 11 1011.1 1011.3 1.2
20/11:00pm 9.9 6.0 7.0 82 1.4 WNW 17 30 9 16 1011.1 1011.3 1.2
20/10:30pm 10.1 5.8 7.0 81 1.5 WNW 19 28 10 15 1011.0 1011.2 1.2
20/10:00pm 10.3 6.4 7.2 81 1.5 WNW 17 26 9 14 1010.8 1010.9 1.2
20/09:30pm 10.5 6.0 6.8 78 1.8 WNW 20 28 11 15 1010.6 1010.7 1.2
20/09:00pm 10.8 6.4 6.7 76 2.0 WNW 19 26 10 14 1010.5 1010.6 1.2
20/08:30pm 11.3 6.9 6.6 73 2.3 WNW 19 28 10 15 1010.4 1010.5 1.2
20/08:00pm 11.4 6.4 6.5 72 2.4 W 22 33 12 18 1010.2 1010.3 1.2
20/07:30pm 11.4 6.8 6.7 73 2.3 WNW 20 39 11 21 1009.9 1010.0 1.2
20/07:00pm 11.6 7.2 6.7 72 2.4 WNW 19 32 10 17 1009.7 1009.8 1.2
20/06:30pm 12.0 6.3 6.7 70 2.6 WNW 26 35 14 19 1009.0 1009.2 1.2
20/06:00pm 12.4 7.9 6.9 69 2.7 W 20 32 11 17 1008.7 1008.9 1.2
20/05:30pm 12.4 7.8 6.7 68 2.8 WNW 20 32 11 17 1008.2 1008.4 1.2
20/05:00pm 12.8 8.3 7.0 68 2.9 WNW 20 39 11 21 1007.9 1008.0 1.2
20/04:30pm 13.6 8.4 7.2 65 3.2 WNW 24 35 13 19 1007.5 1007.6 1.2
20/04:00pm 14.0 8.4 7.3 64 3.3 WNW 26 41 14 22 1007.2 1007.3 1.2
20/03:47pm 13.9 8.0 7.4 65 3.2 WNW 28 50 15 27 1006.9 1007.0 1.2
20/03:30pm 13.7 7.5 7.9 68 2.9 WNW 30 46 16 25 1006.9 1007.0 1.2
20/03:20pm 13.5 7.2 7.5 67 3.0 WNW 30 50 16 27 1006.7 1006.8 1.2
20/03:00pm 13.7 7.0 8.1 69 2.8 WNW 33 52 18 28 1006.6 1006.7 1.2
20/02:45pm 14.0 8.0 8.8 71 2.7 WNW 30 48 16 26 1006.5 1006.6 1.2
20/02:30pm 13.2 7.6 8.9 75 2.2 WNW 28 43 15 23 1006.5 1006.6 1.2
20/02:00pm 12.4 8.8 9.8 84 1.4 WNW 19 28 10 15 1006.4 1006.5 1.2
20/01:30pm 12.3 8.4 8.8 79 1.8 W 19 30 10 16 1006.6 1006.7 0.8
20/01:00pm 12.0 6.0 8.7 80 1.7 WNW 30 44 16 24 1006.6 1006.7 0.8
20/12:30pm 12.3 7.9 9.1 81 1.6 WNW 22 32 12 17 1007.0 1007.1 0.6
20/12:00pm 12.4 6.9 7.7 73 2.3 NW 26 44 14 24 1007.2 1007.3 0.0
20/11:30am 13.5 7.7 8.1 70 2.7 NW 28 44 15 24 1007.5 1007.6 0.0
20/11:00am 12.9 7.6 6.9 67 2.9 NW 24 41 13 22 1007.8 1007.9 0.0
20/10:30am 12.2 6.5 6.9 70 2.6 NW 26 39 14 21 1008.0 1008.1 0.0
20/10:00am 12.0 7.2 7.5 74 2.2 NW 22 35 12 19 1008.1 1008.2 0.0
20/09:30am 11.3 7.0 7.8 79 1.7 NW 20 28 11 15 1008.3 1008.5 0.0
20/09:00am 10.4 6.2 7.5 82 1.4 NW 19 32 10 17 1008.1 1008.2 5.8
20/08:30am 9.8 5.9 7.2 84 1.3 NW 17 24 9 13 1008.2 1008.4 5.8
20/08:00am 9.1 5.1 6.7 85 1.1 NW 17 24 9 13 1007.9 1008.0 5.8
20/07:30am 8.3 4.2 6.1 86 1.0 NW 17 24 9 13 1007.7 1007.8 5.8
20/07:00am 8.6 4.5 6.2 85 1.1 NW 17 24 9 13 1007.4 1007.5 5.8
20/06:30am 8.8 4.7 6.3 84 1.2 NW 17 22 9 12 1007.1 1007.2 5.8
20/06:00am 8.8 4.7 6.3 84 1.2 NW 17 22 9 12 1007.4 1007.5 5.8
20/05:30am 8.7 4.5 5.8 82 1.3 NNW 17 22 9 12 1006.8 1006.9 5.8
20/05:00am 8.9 4.8 6.3 84 1.2 NW 17 24 9 13 1006.7 1006.8 5.8
20/04:30am 9.1 4.5 6.4 83 1.3 NW 20 33 11 18 1006.7 1006.8 5.8
20/04:00am 9.4 5.5 7.2 86 1.1 NW 17 28 9 15 1007.2 1007.3 5.0
20/03:30am 9.5 4.6 7.1 85 1.2 NW 22 39 12 21 1007.1 1007.2 3.8
20/03:00am 9.9 4.3 7.2 83 1.3 NW 26 43 14 23 1007.0 1007.1 2.0
20/02:30am 10.1 4.2 7.7 85 1.2 NW 28 39 15 21 1006.8 1006.9 2.0
20/02:00am 10.3 5.6 7.9 85 1.2 NW 22 43 12 23 1007.1 1007.2 0.6
20/01:30am 10.3 5.5 7.5 83 1.4 NNW 22 32 12 17 1007.1 1007.2 0.0
20/01:00am 10.4 5.6 7.5 82 1.4 NNW 22 28 12 15 1007.4 1007.5 0.0
20/12:30am 10.8 5.7 7.7 81 1.5 NNW 24 32 13 17 1007.8 1007.9 0.0
20/12:00am 11.0 6.2 7.5 79 1.7 NNW 22 32 12 17 1007.7 1007.8 0.0
 
Date/Time
WST
Temp
°C
App
Temp
°C
Dew
Point
°C
Rel
Hum
%
Delta-T
°C
Wind Press
QNH
hPa
Press
MSL
hPa
Rain since
9am
mm
Dir  Spd
km/h
Gust
km/h
Spd
kts
Gust
kts
19/11:30pm 10.9 5.7 7.4 79 1.7 NNW 24 35 13 19 1008.5 1008.7 0.0
19/11:00pm 11.1 5.7 7.8 80 1.6 NNW 26 35 14 19 1008.9 1009.1 0.0
19/10:30pm 10.9 5.8 7.8 81 1.5 NNW 24 35 13 19 1009.3 1009.4 0.0
19/10:00pm 10.9 6.5 7.6 80 1.6 NNW 20 32 11 17 1009.5 1009.6 0.0
19/09:30pm 11.1 6.4 7.8 80 1.6 NNW 22 32 12 17 1009.9 1010.0 0.0
19/09:00pm 10.8 6.4 7.5 80 1.6 NNW 20 28 11 15 1010.1 1010.2 0.0
19/08:30pm 11.0 6.3 7.7 80 1.6 NNW 22 32 12 17 1010.1 1010.2 0.0
19/08:00pm 11.2 6.9 7.7 79 1.7 NNW 20 32 11 17 1009.9 1010.0 0.0
19/07:30pm 11.6 7.2 7.5 76 2.0 NNW 20 30 11 16 1009.9 1010.0 0.0
19/07:00pm 11.9 7.5 7.6 75 2.1 NNW 20 30 11 16 1010.3 1010.4 0.0
19/06:30pm 11.7 7.3 7.4 75 2.1 NNW 20 28 11 15 1010.4 1010.5 0.0
19/06:00pm 12.2 5.9 7.3 72 2.4 NW 30 41 16 22 1010.2 1010.3 0.0
19/05:30pm 12.4 6.1 7.3 71 2.5 NW 30 46 16 25 1010.3 1010.4 0.0
19/05:00pm 13.4 8.3 7.6 68 2.9 NW 24 33 13 18 1010.3 1010.4 0.0
19/04:30pm 14.3 7.9 7.1 62 3.6 NW 30 41 16 22 1010.1 1010.2 0.0
19/04:00pm 14.8 8.8 7.1 60 3.8 NW 28 43 15 23 1010.3 1010.4 0.0
19/03:30pm 15.4 8.0 6.7 56 4.3 NW 35 48 19 26 1010.2 1010.3 0.0
19/03:10pm 15.7 8.7 6.7 55 4.5 NNW 33 56 18 30 1010.1 1010.2 0.0
19/03:00pm 15.6 8.2 6.9 56 4.4 NNW 35 46 19 25 1010.1 1010.2 0.0
19/02:30pm 15.2 7.5 7.0 58 4.1 NNW 37 50 20 27 1010.3 1010.4 0.0
19/02:00pm 14.7 8.0 7.5 62 3.6 NNW 32 46 17 25 1010.5 1010.6 0.0
19/01:30pm 13.5 8.6 8.4 71 2.6 NW 24 35 13 19 1011.3 1011.5 0.0
19/01:00pm 13.6 7.1 8.0 69 2.8 NNW 32 41 17 22 1011.6 1011.8 0.0
19/12:30pm 13.3 7.9 8.2 71 2.6 NNW 26 39 14 21 1012.2 1012.4 0.0
19/12:00pm 13.2 8.3 8.5 73 2.4 NW 24 35 13 19 1012.7 1012.8 0.0
19/11:30am 13.0 7.7 8.5 74 2.3 NW 26 35 14 19 1013.3 1013.4 0.0
19/11:00am 13.0 8.3 9.1 77 2.0 NNW 24 37 13 20 1013.7 1013.9 0.0
19/10:30am 12.6 8.2 9.1 79 1.8 NNW 22 28 12 15 1014.1 1014.3 0.0
19/10:00am 12.3 8.3 9.1 81 1.6 NW 20 28 11 15 1014.3 1014.5 0.0
19/09:30am 12.2 8.5 9.6 84 1.3 NNW 19 26 10 14 1014.3 1014.5 0.0
19/09:00am 11.8 8.5 9.5 86 1.2 NNW 17 22 9 12 1014.4 1014.6 0.8
19/08:30am 11.1 7.2 9.4 89 0.9 NW 20 30 11 16 1014.5 1014.7 0.8
19/08:00am 11.0 7.3 9.3 89 0.9 NW 19 24 10 13 1014.4 1014.6 0.8
19/07:30am 10.8 8.1 9.1 89 0.9 NW 13 19 7 10 1014.3 1014.5 0.8
19/07:00am 11.0 8.0 9.3 89 0.9 NW 15 24 8 13 1014.3 1014.5 0.6
19/06:30am 11.6 9.2 9.9 89 0.9 NNW 13 17 7 9 1013.9 1014.1 0.4
19/06:00am 11.8 9.3 9.7 87 1.1 NNW 13 20 7 11 1013.9 1014.1 0.2
19/05:30am 12.1 9.6 9.7 85 1.2 NNW 13 19 7 10 1013.8 1014.0 0.0
19/05:00am 12.2 9.4 9.9 86 1.2 NNW 15 22 8 12 1013.9 1014.1 0.0
19/04:30am 11.6 9.5 9.7 88 1.0 N 11 17 6 9 1013.8 1014.0 0.0
19/04:00am 12.1 10.1 10.2 88 1.0 NNW 11 15 6 8 1013.8 1014.0 0.0
19/03:30am 11.8 9.7 9.9 88 1.0 NNW 11 15 6 8 1013.9 1014.1 0.0
19/03:00am 12.2 11.0 10.3 88 1.0 NNW 7 13 4 7 1014.0 1014.2 0.0
19/02:30am 12.2 10.6 10.1 87 1.1 NW 9 13 5 7 1014.2 1014.4 0.0
19/02:00am 12.0 9.9 9.6 85 1.2 NW 11 20 6 11 1013.9 1014.1 0.0
19/01:30am 12.4 9.9 9.6 83 1.4 WNW 13 20 7 11 1013.7 1013.9 0.0
19/01:00am 13.5 9.7 9.0 74 2.3 NW 19 26 10 14 1013.9 1014.1 0.0
19/12:30am 13.4 9.9 7.4 67 3.0 NNW 15 22 8 12 1013.9 1014.1 0.0
19/12:00am 12.8 10.0 6.8 67 2.9 N 11 15 6 8 1013.8 1014.0 0.0
 
Date/Time
WST
Temp
°C
App
Temp
°C
Dew
Point
°C
Rel
Hum
%
Delta-T
°C
Wind Press
QNH
hPa
Press
MSL
hPa
Rain since
9am
mm
Dir  Spd
km/h
Gust
km/h
Spd
kts
Gust
kts
18/11:30pm 12.1 9.9 6.4 68 2.7 N 7 11 4 6 1013.9 1014.1 0.0
18/11:00pm 12.4 9.4 6.0 65 3.1 N 11 17 6 9 1014.1 1014.3 0.0
18/10:30pm 12.8 9.8 6.2 64 3.2 N 11 17 6 9 1014.3 1014.5 0.0
18/10:00pm 12.9 9.6 6.3 64 3.2 N 13 20 7 11 1014.4 1014.6 0.0
18/09:30pm 12.8 8.7 6.4 65 3.1 N 17 24 9 13 1014.5 1014.7 0.0
18/09:00pm 12.9 8.8 6.3 64 3.2 N 17 24 9 13 1014.5 1014.7 0.0
18/08:30pm 13.2 8.6 6.3 63 3.3 NNE 20 28 11 15 1014.4 1014.6 0.0
18/08:00pm 13.7 8.7 6.6 62 3.5 NNE 22 33 12 18 1014.4 1014.6 0.0
18/07:30pm 14.7 9.3 6.5 58 4.0 NNE 24 33 13 18 1014.6 1014.8 0.0
18/07:00pm 15.4 9.3 6.7 56 4.3 NNE 28 37 15 20 1014.7 1014.9 0.0
18/06:30pm 15.4 9.7 6.7 56 4.3 NNE 26 35 14 19 1014.8 1015.0 0.0
18/06:00pm 15.5 10.1 6.5 55 4.5 NNE 24 33 13 18 1014.8 1015.0 0.0
18/05:30pm 16.0 10.7 6.7 54 4.6 NNE 24 35 13 19 1014.9 1015.1 0.0
18/05:00pm 16.1 11.2 6.8 54 4.6 NNE 22 28 12 15 1015.0 1015.2 0.0
18/04:30pm 17.1 11.0 6.6 50 5.3 N 28 39 15 21 1015.2 1015.4 0.0
18/04:00pm 17.6 12.0 7.1 50 5.3 N 26 39 14 21 1015.5 1015.7 0.0
18/03:46pm 17.6 11.5 6.5 48 5.6 N 28 48 15 26 1015.5 1015.7 0.0
18/03:30pm 17.5 11.4 6.4 48 5.6 N 28 39 15 21 1015.7 1015.8 0.0
18/03:00pm 17.7 11.2 6.6 48 5.6 N 30 43 16 23 1015.8 1015.9 0.0
18/02:30pm 17.7 11.7 7.2 50 5.4 N 28 43 15 23 1016.2 1016.4 0.0
18/02:04pm 16.9 10.0 6.4 50 5.2 N 32 52 17 28 1016.2 1016.4 0.0
18/02:00pm 17.1 10.8 7.5 53 4.9 N 30 43 16 23 1016.3 1016.5 0.0
18/01:30pm 16.6 10.6 7.0 53 4.8 N 28 46 15 25 1016.8 1017.0 0.0
18/01:00pm 16.1 9.8 7.3 56 4.4 N 30 43 16 23 1017.2 1017.4 0.0

Other Formats:

Comma delimited format used in spreadsheet applications
http://www.bom.gov.au/fwo/IDW60801/IDW60801.94641.axf

JavaScript Object Notation format (JSON) in row-major order
http://www.bom.gov.au/fwo/IDW60801/IDW60801.94641.json